sensor_id;sensor_type;location;lat;lon;timestamp;pressure;altitude;pressure_sealevel;temperature;humidity
11487;BME280;10510;47.942;9.442;2023-07-02T00:01:55;94303.34;;;15.51;100.00
11487;BME280;10510;47.942;9.442;2023-07-02T00:03:55;94303.53;;;15.50;100.00
11487;BME280;10510;47.942;9.442;2023-07-02T00:05:55;94298.06;;;15.51;100.00
11487;BME280;10510;47.942;9.442;2023-07-02T00:07:57;94299.66;;;15.52;100.00
11487;BME280;10510;47.942;9.442;2023-07-02T00:09:57;94295.44;;;15.51;100.00
11487;BME280;10510;47.942;9.442;2023-07-02T00:11:57;94297.28;;;15.51;100.00
11487;BME280;10510;47.942;9.442;2023-07-02T00:13:57;94301.50;;;15.52;100.00
11487;BME280;10510;47.942;9.442;2023-07-02T00:15:58;94304.38;;;15.50;100.00
11487;BME280;10510;47.942;9.442;2023-07-02T00:17:58;94302.75;;;15.49;100.00
11487;BME280;10510;47.942;9.442;2023-07-02T00:19:59;94301.94;;;15.49;100.00
11487;BME280;10510;47.942;9.442;2023-07-02T00:22:06;94305.97;;;15.51;100.00
11487;BME280;10510;47.942;9.442;2023-07-02T00:24:07;94312.84;;;15.52;100.00
11487;BME280;10510;47.942;9.442;2023-07-02T00:26:09;94308.38;;;15.53;100.00
11487;BME280;10510;47.942;9.442;2023-07-02T00:28:09;94304.13;;;15.52;100.00
11487;BME280;10510;47.942;9.442;2023-07-02T00:30:10;94310.44;;;15.51;100.00
11487;BME280;10510;47.942;9.442;2023-07-02T00:32:10;94310.66;;;15.49;100.00
11487;BME280;10510;47.942;9.442;2023-07-02T00:34:11;94316.16;;;15.48;100.00
11487;BME280;10510;47.942;9.442;2023-07-02T00:36:12;94308.47;;;15.46;100.00
11487;BME280;10510;47.942;9.442;2023-07-02T00:38:14;94315.56;;;15.45;100.00
11487;BME280;10510;47.942;9.442;2023-07-02T00:40:14;94310.28;;;15.45;100.00
11487;BME280;10510;47.942;9.442;2023-07-02T00:42:14;94315.75;;;15.44;100.00
11487;BME280;10510;47.942;9.442;2023-07-02T00:44:15;94308.47;;;15.46;100.00
11487;BME280;10510;47.942;9.442;2023-07-02T00:46:17;94310.09;;;15.47;100.00
11487;BME280;10510;47.942;9.442;2023-07-02T00:48:20;94310.50;;;15.44;100.00
11487;BME280;10510;47.942;9.442;2023-07-02T00:50:21;94309.69;;;15.43;100.00
11487;BME280;10510;47.942;9.442;2023-07-02T00:52:22;94317.41;;;15.45;100.00
11487;BME280;10510;47.942;9.442;2023-07-02T00:54:23;94312.56;;;15.42;100.00
11487;BME280;10510;47.942;9.442;2023-07-02T00:56:26;94312.22;;;15.38;100.00
11487;BME280;10510;47.942;9.442;2023-07-02T00:58:26;94315.84;;;15.37;100.00
11487;BME280;10510;47.942;9.442;2023-07-02T01:00:27;94319.53;;;15.36;100.00
11487;BME280;10510;47.942;9.442;2023-07-02T01:02:28;94318.72;;;15.36;100.00
11487;BME280;10510;47.942;9.442;2023-07-02T01:04:29;94320.75;;;15.34;100.00
11487;BME280;10510;47.942;9.442;2023-07-02T01:06:31;94324.44;;;15.33;100.00
11487;BME280;10510;47.942;9.442;2023-07-02T01:08:32;94311.91;;;15.28;100.00
11487;BME280;10510;47.942;9.442;2023-07-02T01:10:33;94311.31;;;15.26;100.00
11487;BME280;10510;47.942;9.442;2023-07-02T01:12:35;94320.69;;;15.22;100.00
11487;BME280;10510;47.942;9.442;2023-07-02T01:14:38;94335.69;;;15.21;100.00
11487;BME280;10510;47.942;9.442;2023-07-02T01:16:43;94330.63;;;15.20;100.00
11487;BME280;10510;47.942;9.442;2023-07-02T01:18:44;94329.22;;;15.17;100.00
11487;BME280;10510;47.942;9.442;2023-07-02T01:20:45;94329.03;;;15.19;100.00
11487;BME280;10510;47.942;9.442;2023-07-02T01:22:48;94326.38;;;15.19;100.00
11487;BME280;10510;47.942;9.442;2023-07-02T01:24:52;94319.53;;;15.18;100.00
11487;BME280;10510;47.942;9.442;2023-07-02T01:26:53;94322.16;;;15.18;100.00
11487;BME280;10510;47.942;9.442;2023-07-02T01:28:53;94323.75;;;15.19;100.00
11487;BME280;10510;47.942;9.442;2023-07-02T01:30:53;94314.03;;;15.19;100.00
11487;BME280;10510;47.942;9.442;2023-07-02T01:32:54;94320.31;;;15.18;100.00
11487;BME280;10510;47.942;9.442;2023-07-02T01:34:54;94317.91;;;15.17;100.00
11487;BME280;10510;47.942;9.442;2023-07-02T01:36:55;94321.56;;;15.16;100.00
11487;BME280;10510;47.942;9.442;2023-07-02T01:38:55;94313.31;;;15.12;100.00
11487;BME280;10510;47.942;9.442;2023-07-02T01:40:55;94315.56;;;15.09;100.00
11487;BME280;10510;47.942;9.442;2023-07-02T01:42:55;94320.00;;;15.08;100.00
11487;BME280;10510;47.942;9.442;2023-07-02T01:44:56;94322.09;;;15.06;100.00
11487;BME280;10510;47.942;9.442;2023-07-02T01:46:56;94328.34;;;15.05;100.00
11487;BME280;10510;47.942;9.442;2023-07-02T01:48:57;94330.19;;;15.05;100.00
11487;BME280;10510;47.942;9.442;2023-07-02T01:50:57;94339.66;;;15.06;100.00
11487;BME280;10510;47.942;9.442;2023-07-02T01:52:57;94337.28;;;15.04;100.00
11487;BME280;10510;47.942;9.442;2023-07-02T01:54:57;94345.38;;;15.03;100.00
11487;BME280;10510;47.942;9.442;2023-07-02T01:56:58;94350.63;;;15.03;100.00
11487;BME280;10510;47.942;9.442;2023-07-02T01:58:58;94353.25;;;15.03;100.00
11487;BME280;10510;47.942;9.442;2023-07-02T02:00:59;94353.69;;;14.99;100.00
11487;BME280;10510;47.942;9.442;2023-07-02T02:02:59;94354.72;;;14.98;100.00
11487;BME280;10510;47.942;9.442;2023-07-02T02:04:59;94352.53;;;14.95;100.00
11487;BME280;10510;47.942;9.442;2023-07-02T02:07:00;94351.38;;;14.91;100.00
11487;BME280;10510;47.942;9.442;2023-07-02T02:09:01;94354.00;;;14.91;100.00
11487;BME280;10510;47.942;9.442;2023-07-02T02:11:03;94356.63;;;14.91;100.00
11487;BME280;10510;47.942;9.442;2023-07-02T02:13:03;94355.81;;;14.91;100.00
11487;BME280;10510;47.942;9.442;2023-07-02T02:15:04;94361.28;;;14.89;100.00
11487;BME280;10510;47.942;9.442;2023-07-02T02:17:04;94366.56;;;14.89;100.00
11487;BME280;10510;47.942;9.442;2023-07-02T02:19:04;94361.06;;;14.91;100.00
11487;BME280;10510;47.942;9.442;2023-07-02T02:21:05;94366.31;;;14.91;100.00
11487;BME280;10510;47.942;9.442;2023-07-02T02:23:05;94365.31;;;14.92;100.00
11487;BME280;10510;47.942;9.442;2023-07-02T02:25:06;94368.53;;;14.94;100.00
11487;BME280;10510;47.942;9.442;2023-07-02T02:27:06;94362.81;;;14.97;100.00
11487;BME280;10510;47.942;9.442;2023-07-02T02:29:07;94368.91;;;14.97;100.00
11487;BME280;10510;47.942;9.442;2023-07-02T02:31:08;94375.56;;;15.00;100.00
11487;BME280;10510;47.942;9.442;2023-07-02T02:33:08;94380.59;;;15.02;100.00
11487;BME280;10510;47.942;9.442;2023-07-02T02:35:09;94376.16;;;15.02;100.00
11487;BME280;10510;47.942;9.442;2023-07-02T02:37:09;94375.72;;;15.05;100.00
11487;BME280;10510;47.942;9.442;2023-07-02T02:39:09;94379.16;;;15.06;100.00
11487;BME280;10510;47.942;9.442;2023-07-02T02:41:09;94368.41;;;15.07;100.00
11487;BME280;10510;47.942;9.442;2023-07-02T02:43:10;94365.56;;;15.09;100.00
11487;BME280;10510;47.942;9.442;2023-07-02T02:45:10;94371.66;;;15.09;100.00
11487;BME280;10510;47.942;9.442;2023-07-02T02:47:10;94371.66;;;15.09;100.00
11487;BME280;10510;47.942;9.442;2023-07-02T02:49:11;94370.63;;;15.10;100.00
11487;BME280;10510;47.942;9.442;2023-07-02T02:51:11;94381.72;;;15.12;100.00
11487;BME280;10510;47.942;9.442;2023-07-02T02:53:11;94375.66;;;15.12;100.00
11487;BME280;10510;47.942;9.442;2023-07-02T02:55:12;94379.91;;;15.13;100.00
11487;BME280;10510;47.942;9.442;2023-07-02T02:57:12;94381.50;;;15.14;100.00
11487;BME280;10510;47.942;9.442;2023-07-02T02:59:13;94382.91;;;15.16;100.00
11487;BME280;10510;47.942;9.442;2023-07-02T03:01:13;94376.41;;;15.19;100.00
11487;BME280;10510;47.942;9.442;2023-07-02T03:03:15;94381.22;;;15.22;100.00
11487;BME280;10510;47.942;9.442;2023-07-02T03:05:17;94387.28;;;15.22;100.00
11487;BME280;10510;47.942;9.442;2023-07-02T03:07:17;94374.38;;;15.21;100.00
11487;BME280;10510;47.942;9.442;2023-07-02T03:09:17;94392.78;;;15.21;100.00
11487;BME280;10510;47.942;9.442;2023-07-02T03:11:18;94389.13;;;15.22;100.00
11487;BME280;10510;47.942;9.442;2023-07-02T03:13:18;94399.44;;;15.24;100.00
11487;BME280;10510;47.942;9.442;2023-07-02T03:15:18;94396.59;;;15.25;100.00
11487;BME280;10510;47.942;9.442;2023-07-02T03:17:19;94399.44;;;15.24;100.00
11487;BME280;10510;47.942;9.442;2023-07-02T03:19:20;94392.13;;;15.26;100.00
11487;BME280;10510;47.942;9.442;2023-07-02T03:21:20;94393.50;;;15.28;100.00
11487;BME280;10510;47.942;9.442;2023-07-02T03:23:20;94396.94;;;15.29;100.00
11487;BME280;10510;47.942;9.442;2023-07-02T03:25:20;94393.31;;;15.30;100.00
11487;BME280;10510;47.942;9.442;2023-07-02T03:27:21;94386.41;;;15.29;100.00
11487;BME280;10510;47.942;9.442;2023-07-02T03:29:21;94402.00;;;15.30;100.00
11487;BME280;10510;47.942;9.442;2023-07-02T03:31:21;94403.59;;;15.31;100.00
11487;BME280;10510;47.942;9.442;2023-07-02T03:33:22;94400.78;;;15.33;100.00
11487;BME280;10510;47.942;9.442;2023-07-02T03:35:22;94403.41;;;15.33;100.00
11487;BME280;10510;47.942;9.442;2023-07-02T03:37:22;94407.84;;;15.32;100.00
11487;BME280;10510;47.942;9.442;2023-07-02T03:39:22;94407.84;;;15.32;100.00
11487;BME280;10510;47.942;9.442;2023-07-02T03:41:23;94402.56;;;15.32;100.00
11487;BME280;10510;47.942;9.442;2023-07-02T03:43:23;94403.59;;;15.31;100.00
11487;BME280;10510;47.942;9.442;2023-07-02T03:45:25;94412.69;;;15.35;100.00
11487;BME280;10510;47.942;9.442;2023-07-02T03:47:25;94412.69;;;15.35;100.00
11487;BME280;10510;47.942;9.442;2023-07-02T03:49:25;94412.69;;;15.35;100.00
11487;BME280;10510;47.942;9.442;2023-07-02T03:51:25;94417.97;;;15.35;100.00
11487;BME280;10510;47.942;9.442;2023-07-02T03:53:26;94411.06;;;15.34;100.00
11487;BME280;10510;47.942;9.442;2023-07-02T03:55:26;94417.72;;;15.37;100.00
11487;BME280;10510;47.942;9.442;2023-07-02T03:57:26;94422.78;;;15.38;100.00
11487;BME280;10510;47.942;9.442;2023-07-02T03:59:27;94420.16;;;15.38;100.00
11487;BME280;10510;47.942;9.442;2023-07-02T04:01:27;94419.34;;;15.38;100.00
11487;BME280;10510;47.942;9.442;2023-07-02T04:03:27;94427.22;;;15.38;100.00
11487;BME280;10510;47.942;9.442;2023-07-02T04:05:27;94434.31;;;15.37;100.00
11487;BME280;10510;47.942;9.442;2023-07-02T04:07:28;94437.75;;;15.38;100.00
11487;BME280;10510;47.942;9.442;2023-07-02T04:09:28;94439.59;;;15.37;100.00
11487;BME280;10510;47.942;9.442;2023-07-02T04:11:28;94435.97;;;15.38;100.00
11487;BME280;10510;47.942;9.442;2023-07-02T04:13:29;94439.41;;;15.39;100.00
11487;BME280;10510;47.942;9.442;2023-07-02T04:15:29;94434.94;;;15.39;100.00
11487;BME280;10510;47.942;9.442;2023-07-02T04:17:29;94442.03;;;15.39;100.00
11487;BME280;10510;47.942;9.442;2023-07-02T04:19:29;94448.69;;;15.41;100.00
11487;BME280;10510;47.942;9.442;2023-07-02T04:21:30;94451.09;;;15.43;100.00
11487;BME280;10510;47.942;9.442;2023-07-02T04:23:30;94444.22;;;15.42;100.00
11487;BME280;10510;47.942;9.442;2023-07-02T04:25:30;94451.88;;;15.43;100.00
11487;BME280;10510;47.942;9.442;2023-07-02T04:27:31;94448.69;;;15.41;100.00
11487;BME280;10510;47.942;9.442;2023-07-02T04:29:31;94454.53;;;15.43;100.00
11487;BME280;10510;47.942;9.442;2023-07-02T04:31:31;94454.31;;;15.45;100.00
11487;BME280;10510;47.942;9.442;2023-07-02T04:33:31;94449.06;;;15.45;100.00
11487;BME280;10510;47.942;9.442;2023-07-02T04:35:35;94454.97;;;15.40;100.00
11487;BME280;10510;47.942;9.442;2023-07-02T04:37:36;94451.75;;;15.38;100.00
11487;BME280;10510;47.942;9.442;2023-07-02T04:39:37;94453.00;;;15.36;100.00
11487;BME280;10510;47.942;9.442;2023-07-02T04:41:37;94457.47;;;15.35;100.00
11487;BME280;10510;47.942;9.442;2023-07-02T04:43:37;94447.72;;;15.36;100.00
11487;BME280;10510;47.942;9.442;2023-07-02T04:45:38;94449.13;;;15.38;100.00
11487;BME280;10510;47.942;9.442;2023-07-02T04:47:39;94447.50;;;15.37;100.00
11487;BME280;10510;47.942;9.442;2023-07-02T04:49:39;94455.75;;;15.41;100.00
11487;BME280;10510;47.942;9.442;2023-07-02T04:51:40;94458.56;;;15.46;100.00
11487;BME280;10510;47.942;9.442;2023-07-02T04:53:40;94456.50;;;15.48;100.00
11487;BME280;10510;47.942;9.442;2023-07-02T04:55:41;94456.50;;;15.48;100.00
11487;BME280;10510;47.942;9.442;2023-07-02T04:57:41;94459.34;;;15.47;100.00
11487;BME280;10510;47.942;9.442;2023-07-02T04:59:42;94470.91;;;15.45;100.00
11487;BME280;10510;47.942;9.442;2023-07-02T05:01:42;94476.19;;;15.45;100.00
11487;BME280;10510;47.942;9.442;2023-07-02T05:03:43;94469.88;;;15.47;100.00
11487;BME280;10510;47.942;9.442;2023-07-02T05:05:44;94472.09;;;15.50;100.00
11487;BME280;10510;47.942;9.442;2023-07-02T05:07:44;94478.53;;;15.54;100.00
11487;BME280;10510;47.942;9.442;2023-07-02T05:09:44;94481.19;;;15.54;100.00
11487;BME280;10510;47.942;9.442;2023-07-02T05:11:45;94475.31;;;15.52;100.00
11487;BME280;10510;47.942;9.442;2023-07-02T05:13:45;94477.16;;;15.51;100.00
11487;BME280;10510;47.942;9.442;2023-07-02T05:15:45;94477.34;;;15.50;100.00
11487;BME280;10510;47.942;9.442;2023-07-02T05:17:46;94476.91;;;15.53;100.00
11487;BME280;10510;47.942;9.442;2023-07-02T05:19:46;94486.22;;;15.55;100.00
11487;BME280;10510;47.942;9.442;2023-07-02T05:21:47;94480.91;;;15.62;100.00
11487;BME280;10510;47.942;9.442;2023-07-02T05:23:47;94487.34;;;15.66;100.00
11487;BME280;10510;47.942;9.442;2023-07-02T05:25:47;94495.25;;;15.66;100.00
11487;BME280;10510;47.942;9.442;2023-07-02T05:27:47;94495.25;;;15.66;100.00
11487;BME280;10510;47.942;9.442;2023-07-02T05:29:48;94501.13;;;15.68;100.00
11487;BME280;10510;47.942;9.442;2023-07-02T05:31:48;94494.63;;;15.71;100.00
11487;BME280;10510;47.942;9.442;2023-07-02T05:33:49;94496.59;;;15.75;100.00
11487;BME280;10510;47.942;9.442;2023-07-02T05:35:49;94499.81;;;15.77;100.00
11487;BME280;10510;47.942;9.442;2023-07-02T05:37:49;94499.81;;;15.77;100.00
11487;BME280;10510;47.942;9.442;2023-07-02T05:39:49;94504.28;;;15.77;100.00
11487;BME280;10510;47.942;9.442;2023-07-02T05:41:50;94500.63;;;15.78;100.00
11487;BME280;10510;47.942;9.442;2023-07-02T05:43:50;94498.63;;;15.73;100.00
11487;BME280;10510;47.942;9.442;2023-07-02T05:45:51;94498.78;;;15.78;100.00
11487;BME280;10510;47.942;9.442;2023-07-02T05:47:52;94498.34;;;15.81;100.00
11487;BME280;10510;47.942;9.442;2023-07-02T05:49:52;94503.25;;;15.78;100.00
11487;BME280;10510;47.942;9.442;2023-07-02T05:51:53;94501.06;;;15.75;100.00
11487;BME280;10510;47.942;9.442;2023-07-02T05:53:53;94505.53;;;15.74;100.00
11487;BME280;10510;47.942;9.442;2023-07-02T05:55:53;94512.41;;;15.75;100.00
11487;BME280;10510;47.942;9.442;2023-07-02T05:57:54;94513.56;;;15.79;100.00
11487;BME280;10510;47.942;9.442;2023-07-02T05:59:54;94513.94;;;15.83;100.00
11487;BME280;10510;47.942;9.442;2023-07-02T06:01:54;94508.25;;;15.86;100.00
11487;BME280;10510;47.942;9.442;2023-07-02T06:03:55;94516.28;;;15.91;100.00
11487;BME280;10510;47.942;9.442;2023-07-02T06:05:55;94516.22;;;15.98;100.00
11487;BME280;10510;47.942;9.442;2023-07-02T06:07:55;94519.81;;;16.03;100.00
11487;BME280;10510;47.942;9.442;2023-07-02T06:09:56;94519.00;;;16.03;100.00
11487;BME280;10510;47.942;9.442;2023-07-02T06:11:56;94520.69;;;15.97;100.00
11487;BME280;10510;47.942;9.442;2023-07-02T06:13:56;94524.25;;;16.03;100.00
11487;BME280;10510;47.942;9.442;2023-07-02T06:15:56;94526.69;;;16.04;100.00
11487;BME280;10510;47.942;9.442;2023-07-02T06:17:57;94525.44;;;16.07;100.00
11487;BME280;10510;47.942;9.442;2023-07-02T06:19:57;94531.09;;;16.10;100.00
11487;BME280;10510;47.942;9.442;2023-07-02T06:21:58;94528.38;;;16.17;100.00
11487;BME280;10510;47.942;9.442;2023-07-02T06:24:00;94534.03;;;16.21;100.00
11487;BME280;10510;47.942;9.442;2023-07-02T06:28:39;94530.88;;;16.30;100.00
11487;BME280;10510;47.942;9.442;2023-07-02T06:30:40;94538.34;;;16.33;100.00
11487;BME280;10510;47.942;9.442;2023-07-02T06:32:40;94537.28;;;16.34;100.00
11487;BME280;10510;47.942;9.442;2023-07-02T06:34:40;94529.97;;;16.37;100.00
11487;BME280;10510;47.942;9.442;2023-07-02T06:36:41;94533.22;;;16.39;100.00
11487;BME280;10510;47.942;9.442;2023-07-02T06:38:42;94529.28;;;16.41;100.00
11487;BME280;10510;47.942;9.442;2023-07-02T06:40:42;94534.56;;;16.41;100.00
11487;BME280;10510;47.942;9.442;2023-07-02T06:42:42;94531.94;;;16.41;100.00
11487;BME280;10510;47.942;9.442;2023-07-02T06:44:42;94532.16;;;16.40;100.00
11487;BME280;10510;47.942;9.442;2023-07-02T06:46:45;94534.00;;;16.39;100.00
11487;BME280;10510;47.942;9.442;2023-07-02T06:48:46;94538.09;;;16.35;100.00
11487;BME280;10510;47.942;9.442;2023-07-02T06:50:46;94541.56;;;16.35;100.00
11487;BME280;10510;47.942;9.442;2023-07-02T06:52:46;94534.91;;;16.33;100.00
11487;BME280;10510;47.942;9.442;2023-07-02T06:54:47;94537.72;;;16.31;100.00
11487;BME280;10510;47.942;9.442;2023-07-02T06:56:47;94532.09;;;16.28;100.00
11487;BME280;10510;47.942;9.442;2023-07-02T06:58:47;94538.97;;;16.29;100.00
11487;BME280;10510;47.942;9.442;2023-07-02T07:00:48;94534.94;;;16.26;100.00
11487;BME280;10510;47.942;9.442;2023-07-02T07:02:48;94537.22;;;16.23;100.00
11487;BME280;10510;47.942;9.442;2023-07-02T07:04:48;94534.59;;;16.23;100.00
11487;BME280;10510;47.942;9.442;2023-07-02T07:06:49;94536.78;;;16.26;100.00
11487;BME280;10510;47.942;9.442;2023-07-02T07:08:49;94541.06;;;16.27;100.00
11487;BME280;10510;47.942;9.442;2023-07-02T07:10:50;94543.44;;;16.28;100.00
11487;BME280;10510;47.942;9.442;2023-07-02T07:12:50;94539.78;;;16.29;100.00
11487;BME280;10510;47.942;9.442;2023-07-02T07:14:50;94543.59;;;16.33;100.00
11487;BME280;10510;47.942;9.442;2023-07-02T07:16:50;94544.91;;;16.43;100.00
11487;BME280;10510;47.942;9.442;2023-07-02T07:18:51;94547.25;;;16.51;100.00
11487;BME280;10510;47.942;9.442;2023-07-02T07:20:51;94550.97;;;16.62;100.00
11487;BME280;10510;47.942;9.442;2023-07-02T07:22:52;94547.50;;;16.61;100.00
11487;BME280;10510;47.942;9.442;2023-07-02T07:24:53;94544.53;;;16.57;100.00
11487;BME280;10510;47.942;9.442;2023-07-02T07:26:53;94532.72;;;16.60;100.00
11487;BME280;10510;47.942;9.442;2023-07-02T07:28:53;94528.41;;;16.66;100.00
11487;BME280;10510;47.942;9.442;2023-07-02T07:30:58;94534.75;;;16.76;100.00
11487;BME280;10510;47.942;9.442;2023-07-02T07:32:58;94522.78;;;16.92;100.00
11487;BME280;10510;47.942;9.442;2023-07-02T07:34:58;94519.94;;;17.06;100.00
11487;BME280;10510;47.942;9.442;2023-07-02T07:36:58;94523.63;;;17.05;100.00
11487;BME280;10510;47.942;9.442;2023-07-02T07:38:59;94520.41;;;17.14;100.00
11487;BME280;10510;47.942;9.442;2023-07-02T07:40:59;94508.41;;;17.30;100.00
11487;BME280;10510;47.942;9.442;2023-07-02T07:42:59;94505.19;;;17.40;100.00
11487;BME280;10510;47.942;9.442;2023-07-02T07:44:59;94511.38;;;17.34;100.00
11487;BME280;10510;47.942;9.442;2023-07-02T07:47:00;94498.41;;;17.32;100.00
11487;BME280;10510;47.942;9.442;2023-07-02T07:49:00;94495.09;;;17.37;100.00
11487;BME280;10510;47.942;9.442;2023-07-02T07:51:00;94489.22;;;17.46;100.00
11487;BME280;10510;47.942;9.442;2023-07-02T07:53:00;94495.22;;;17.65;100.00
11487;BME280;10510;47.942;9.442;2023-07-02T07:55:01;94493.97;;;17.80;100.00
11487;BME280;10510;47.942;9.442;2023-07-02T07:57:03;94481.44;;;17.87;100.00
11487;BME280;10510;47.942;9.442;2023-07-02T07:59:03;94483.72;;;17.95;100.00
11487;BME280;10510;47.942;9.442;2023-07-02T08:01:04;94483.66;;;18.30;100.00
11487;BME280;10510;47.942;9.442;2023-07-02T08:03:04;94482.28;;;18.28;100.00
11487;BME280;10510;47.942;9.442;2023-07-02T08:05:04;94484.16;;;18.44;100.00
11487;BME280;10510;47.942;9.442;2023-07-02T08:07:05;94476.81;;;18.46;100.00
11487;BME280;10510;47.942;9.442;2023-07-02T08:09:06;94482.47;;;18.38;100.00
11487;BME280;10510;47.942;9.442;2023-07-02T08:11:06;94474.16;;;18.46;100.00
11487;BME280;10510;47.942;9.442;2023-07-02T08:13:07;94466.16;;;18.58;100.00
11487;BME280;10510;47.942;9.442;2023-07-02T08:15:08;94455.06;;;19.01;100.00
11487;BME280;10510;47.942;9.442;2023-07-02T08:17:08;94456.97;;;19.23;100.00
11487;BME280;10510;47.942;9.442;2023-07-02T08:19:09;94455.66;;;19.76;100.00
11487;BME280;10510;47.942;9.442;2023-07-02T08:21:09;94456.25;;;20.22;100.00
11487;BME280;10510;47.942;9.442;2023-07-02T08:23:09;94454.38;;;20.45;100.00
11487;BME280;10510;47.942;9.442;2023-07-02T08:25:09;94459.69;;;20.67;100.00
11487;BME280;10510;47.942;9.442;2023-07-02T08:27:10;94447.75;;;20.96;100.00
11487;BME280;10510;47.942;9.442;2023-07-02T08:29:13;94454.22;;;21.38;100.00
11487;BME280;10510;47.942;9.442;2023-07-02T08:31:14;94453.53;;;21.20;100.00
11487;BME280;10510;47.942;9.442;2023-07-02T08:33:14;94450.25;;;21.08;100.00
11487;BME280;10510;47.942;9.442;2023-07-02T08:35:14;94443.88;;;21.09;100.00
11487;BME280;10510;47.942;9.442;2023-07-02T08:37:14;94442.94;;;21.58;100.00
11487;BME280;10510;47.942;9.442;2023-07-02T08:39:15;94451.19;;;21.29;100.00
11487;BME280;10510;47.942;9.442;2023-07-02T08:41:15;94446.03;;;21.12;100.00
11487;BME280;10510;47.942;9.442;2023-07-02T08:43:15;94440.97;;;21.43;100.00
11487;BME280;10510;47.942;9.442;2023-07-02T08:45:16;94444.66;;;21.37;100.00
11487;BME280;10510;47.942;9.442;2023-07-02T08:47:17;94442.56;;;21.12;100.00
11487;BME280;10510;47.942;9.442;2023-07-02T08:49:17;94443.03;;;21.03;100.00
11487;BME280;10510;47.942;9.442;2023-07-02T08:51:18;94440.56;;;20.97;100.00
11487;BME280;10510;47.942;9.442;2023-07-02T08:53:18;94433.78;;;21.43;100.00
11487;BME280;10510;47.942;9.442;2023-07-02T08:55:18;94435.34;;;21.82;100.00
11487;BME280;10510;47.942;9.442;2023-07-02T08:57:19;94436.81;;;22.05;100.00
11487;BME280;10510;47.942;9.442;2023-07-02T08:59:21;94431.84;;;22.18;100.00
11487;BME280;10510;47.942;9.442;2023-07-02T09:01:21;94427.38;;;22.39;100.00
11487;BME280;10510;47.942;9.442;2023-07-02T09:03:25;94428.75;;;22.52;100.00
11487;BME280;10510;47.942;9.442;2023-07-02T09:05:25;94423.44;;;22.57;100.00
11487;BME280;10510;47.942;9.442;2023-07-02T09:07:25;94412.53;;;22.64;100.00
11487;BME280;10510;47.942;9.442;2023-07-02T09:09:26;94426.81;;;22.32;100.00
11487;BME280;10510;47.942;9.442;2023-07-02T09:11:26;94423.25;;;22.06;100.00
11487;BME280;10510;47.942;9.442;2023-07-02T09:13:26;94420.28;;;21.50;100.00
11487;BME280;10510;47.942;9.442;2023-07-02T09:15:27;94417.44;;;21.62;100.00
11487;BME280;10510;47.942;9.442;2023-07-02T09:17:31;94414.00;;;21.66;100.00
11487;BME280;10510;47.942;9.442;2023-07-02T09:19:33;94411.38;;;21.71;100.00
11487;BME280;10510;47.942;9.442;2023-07-02T09:21:49;94408.75;;;21.82;100.00
11487;BME280;10510;47.942;9.442;2023-07-02T09:23:49;94409.13;;;22.00;100.00
11487;BME280;10510;47.942;9.442;2023-07-02T09:25:49;94402.88;;;22.32;100.00
11487;BME280;10510;47.942;9.442;2023-07-02T09:27:50;94401.06;;;22.53;100.00
11487;BME280;10510;47.942;9.442;2023-07-02T09:29:51;94405.84;;;22.51;100.00
11487;BME280;10510;47.942;9.442;2023-07-02T09:31:56;94409.56;;;22.40;100.00
11487;BME280;10510;47.942;9.442;2023-07-02T09:34:02;94404.63;;;22.11;100.00
11487;BME280;10510;47.942;9.442;2023-07-02T09:36:03;94402.06;;;22.21;100.00
11487;BME280;10510;47.942;9.442;2023-07-02T09:38:04;94399.22;;;22.64;100.00
11487;BME280;10510;47.942;9.442;2023-07-02T09:40:06;94401.13;;;22.74;100.00
11487;BME280;10510;47.942;9.442;2023-07-02T09:42:08;94396.28;;;22.60;100.00
11487;BME280;10510;47.942;9.442;2023-07-02T09:44:11;94400.00;;;22.54;100.00
11487;BME280;10510;47.942;9.442;2023-07-02T09:46:12;94400.50;;;22.36;100.00
11487;BME280;10510;47.942;9.442;2023-07-02T09:48:14;94386.13;;;22.42;100.00
11487;BME280;10510;47.942;9.442;2023-07-02T09:50:17;94391.97;;;22.44;100.00
11487;BME280;10510;47.942;9.442;2023-07-02T09:52:19;94380.81;;;22.47;100.00
11487;BME280;10510;47.942;9.442;2023-07-02T09:54:20;94385.09;;;22.48;100.00
11487;BME280;10510;47.942;9.442;2023-07-02T09:56:20;94390.72;;;22.72;100.00
11487;BME280;10510;47.942;9.442;2023-07-02T09:58:21;94391.50;;;22.73;100.00
11487;BME280;10510;47.942;9.442;2023-07-02T10:00:21;94382.44;;;22.79;100.00
11487;BME280;10510;47.942;9.442;2023-07-02T10:02:22;94385.09;;;22.63;100.00
11487;BME280;10510;47.942;9.442;2023-07-02T10:04:22;94383.53;;;22.83;100.00
11487;BME280;10510;47.942;9.442;2023-07-02T10:06:26;94393.63;;;22.71;100.00
11487;BME280;10510;47.942;9.442;2023-07-02T10:08:26;94390.38;;;22.38;100.00
11487;BME280;10510;47.942;9.442;2023-07-02T10:10:31;94381.81;;;22.20;100.00
11487;BME280;10510;47.942;9.442;2023-07-02T10:12:31;94391.41;;;22.21;100.00
11487;BME280;10510;47.942;9.442;2023-07-02T10:14:44;94375.50;;;22.42;100.00
11487;BME280;10510;47.942;9.442;2023-07-02T10:16:52;94390.41;;;22.58;100.00
11487;BME280;10510;47.942;9.442;2023-07-02T10:18:55;94381.03;;;22.25;100.00
11487;BME280;10510;47.942;9.442;2023-07-02T10:20:56;94382.31;;;22.17;100.00
11487;BME280;10510;47.942;9.442;2023-07-02T10:22:56;94390.81;;;22.09;100.00
11487;BME280;10510;47.942;9.442;2023-07-02T10:24:59;94386.97;;;21.80;100.00
11487;BME280;10510;47.942;9.442;2023-07-02T10:27:01;94380.91;;;21.42;100.00
11487;BME280;10510;47.942;9.442;2023-07-02T10:29:03;94391.66;;;21.25;100.00
11487;BME280;10510;47.942;9.442;2023-07-02T10:31:03;94382.28;;;21.12;100.00
11487;BME280;10510;47.942;9.442;2023-07-02T10:33:14;94383.38;;;21.16;100.00
11487;BME280;10510;47.942;9.442;2023-07-02T10:35:18;94375.88;;;21.45;100.00